Terminal Aerodrome Forecast
Issued by NWS Sterling, VA

Home | Current Version | Previous Version | Text Only | Print | Product List | Glossary On
Versions: 1 2 3 4 5 6 7 8 9 10 11 12 13 14 15 16 17 18 19 20 21 22 23
979
FTUS41 KLWX 220859 AAA
TAFDCA
TAF AMD
KDCA 220859Z 2209/2312 15003KT P6SM FEW050 BKN200
     FM221200 15004KT 6SM BR SCT008 OVC015
     FM221500 16005KT P6SM BKN025
     FM221800 17007KT P6SM VCSH BKN040
     FM230000 21005KT P6SM BKN070=

USA.gov is the U.S. government's official web portal to all federal, state and local government web resources and services.